Country
Station

 

Weather  for  Villahermosa  -  Mexico    Mexico

  
26 °C (79 °F)
    
 
 

Current METAR for Villahermosa is :

MMVA 181345Z 07008KT 7SM SCT013 BKN070 26/26 A2995 RMK 8/150

 

This is a report for Villahermosa - Mexico.
 
The report was made one hour and 11 minutes ago, at 13:45 UTC .
The wind was blowing at a speed of 4.1 meters per second (9.2 miles per hour) from east/northeast (070°).
 
The temperature was 26 °C (79 °F), with a dew-point at 26 °C (79 °F).
The temperature felt like 29 °C (84 °F).
 
The atmospheric pressure was 1014 hPa (29.95 inHg).
The relative humidity was 100.0%.
 
There were scattered clouds at a height of 396 meters (1300 feet) and broken clouds at a height of 2134 meters (7000 feet).
 
The overall visibility was 11.3 kilometers (7.0 miles).
 

 
 
 
 

Country :   A   B   C   D   E   F   G   H   I   J   K   L   M   N   O   P   Q   R   S   T   U   V   W   Y   Z

 

Site Info  |  Disclaimer  |  Credits  |  Privacy
Contact us  |  Add to favorites
© 2013-2018 METARs - All rights reserved